Weather at Charlton Methodist Hospital Heliport

Public forecast

Using degrees Fahrenheit for public forecast. Weather courtesy of forecast.io.

Closest aviation weather report (METAR) to Charlton Methodist Hospital Heliport

Closest report is Dallas Executive Airport, 2.5 nm (4.6 km) NNE.

2024/07/25 17:53 (retrieved 18 minutes ago)

KRBD 251753Z 07008KT 10SM FEW037 FEW055 31/21 A3012 RMK AO2 SLP190 T03060211 10317 20222 58006

Closest aviation forecast (TAF) to Charlton Methodist Hospital Heliport

Closest forecast is Arlington Municipal Airport, 10.2 nm (18.8 km) W.

2024/07/25 18:24 (retrieved 0 seconds ago)

TAF KGKY 251723Z 2518/2618 10008KT P6SM VCSH SCT025 BKN250 FM252000 09007KT P6SM VCTS BKN040CB FM260000 13010KT P6SM SCT040 FM261000 VRB04KT P6SM BKN015 FM261600 16006KT P6SM SCT025 BKN035